sensor_id;sensor_type;location;lat;lon;timestamp;P1;durP1;ratioP1;P2;durP2;ratioP2
18383;SDS011;9318;48.644;9.456;2023-05-24T00:01:52;0.87;;;0.87;;
18383;SDS011;9318;48.644;9.456;2023-05-24T00:04:20;0.80;;;0.80;;
18383;SDS011;9318;48.644;9.456;2023-05-24T00:06:49;0.83;;;0.83;;
18383;SDS011;9318;48.644;9.456;2023-05-24T00:09:15;0.90;;;0.90;;
18383;SDS011;9318;48.644;9.456;2023-05-24T00:11:42;0.90;;;0.90;;
18383;SDS011;9318;48.644;9.456;2023-05-24T00:14:09;1.00;;;1.00;;
18383;SDS011;9318;48.644;9.456;2023-05-24T00:16:37;0.80;;;0.80;;
18383;SDS011;9318;48.644;9.456;2023-05-24T00:19:04;0.70;;;0.70;;
18383;SDS011;9318;48.644;9.456;2023-05-24T00:21:31;0.80;;;0.80;;
18383;SDS011;9318;48.644;9.456;2023-05-24T00:24:00;0.80;;;0.80;;
18383;SDS011;9318;48.644;9.456;2023-05-24T00:26:27;0.80;;;0.80;;
18383;SDS011;9318;48.644;9.456;2023-05-24T00:28:54;0.90;;;0.90;;
18383;SDS011;9318;48.644;9.456;2023-05-24T00:31:21;0.80;;;0.80;;
18383;SDS011;9318;48.644;9.456;2023-05-24T00:33:49;0.80;;;0.80;;
18383;SDS011;9318;48.644;9.456;2023-05-24T00:36:15;0.80;;;0.80;;
18383;SDS011;9318;48.644;9.456;2023-05-24T00:38:42;0.80;;;0.80;;
18383;SDS011;9318;48.644;9.456;2023-05-24T00:41:09;0.90;;;0.90;;
18383;SDS011;9318;48.644;9.456;2023-05-24T00:43:36;0.80;;;0.80;;
18383;SDS011;9318;48.644;9.456;2023-05-24T00:46:10;0.80;;;0.80;;
18383;SDS011;9318;48.644;9.456;2023-05-24T00:48:41;0.97;;;0.97;;
18383;SDS011;9318;48.644;9.456;2023-05-24T00:51:09;0.80;;;0.80;;
18383;SDS011;9318;48.644;9.456;2023-05-24T00:53:37;0.80;;;0.80;;
18383;SDS011;9318;48.644;9.456;2023-05-24T00:56:06;0.90;;;0.90;;
18383;SDS011;9318;48.644;9.456;2023-05-24T00:58:33;0.90;;;0.90;;
18383;SDS011;9318;48.644;9.456;2023-05-24T01:01:01;0.80;;;0.80;;
18383;SDS011;9318;48.644;9.456;2023-05-24T01:03:29;0.80;;;0.80;;
18383;SDS011;9318;48.644;9.456;2023-05-24T01:05:55;0.90;;;0.90;;
18383;SDS011;9318;48.644;9.456;2023-05-24T01:08:29;0.90;;;0.90;;
18383;SDS011;9318;48.644;9.456;2023-05-24T01:11:20;0.80;;;0.80;;
18383;SDS011;9318;48.644;9.456;2023-05-24T01:13:55;1.00;;;1.00;;
18383;SDS011;9318;48.644;9.456;2023-05-24T01:16:30;0.90;;;0.90;;
18383;SDS011;9318;48.644;9.456;2023-05-24T01:19:08;0.80;;;0.80;;
18383;SDS011;9318;48.644;9.456;2023-05-24T01:21:58;0.90;;;0.90;;
18383;SDS011;9318;48.644;9.456;2023-05-24T01:24:40;1.00;;;1.00;;
18383;SDS011;9318;48.644;9.456;2023-05-24T01:27:19;0.90;;;0.90;;
18383;SDS011;9318;48.644;9.456;2023-05-24T01:29:48;0.80;;;0.80;;
18383;SDS011;9318;48.644;9.456;2023-05-24T01:32:17;0.90;;;0.90;;
18383;SDS011;9318;48.644;9.456;2023-05-24T01:34:44;0.90;;;0.90;;
18383;SDS011;9318;48.644;9.456;2023-05-24T01:37:11;0.90;;;0.90;;
18383;SDS011;9318;48.644;9.456;2023-05-24T01:39:38;0.90;;;0.90;;
18383;SDS011;9318;48.644;9.456;2023-05-24T01:42:07;1.00;;;1.00;;
18383;SDS011;9318;48.644;9.456;2023-05-24T01:44:41;1.00;;;1.00;;
18383;SDS011;9318;48.644;9.456;2023-05-24T01:47:15;0.90;;;0.90;;
18383;SDS011;9318;48.644;9.456;2023-05-24T01:49:52;0.80;;;0.80;;
18383;SDS011;9318;48.644;9.456;2023-05-24T01:52:21;1.00;;;1.00;;
18383;SDS011;9318;48.644;9.456;2023-05-24T01:54:52;0.80;;;0.80;;
18383;SDS011;9318;48.644;9.456;2023-05-24T01:57:21;0.90;;;0.90;;
18383;SDS011;9318;48.644;9.456;2023-05-24T01:59:51;0.90;;;0.90;;
18383;SDS011;9318;48.644;9.456;2023-05-24T02:02:19;0.90;;;0.90;;
18383;SDS011;9318;48.644;9.456;2023-05-24T02:04:46;1.00;;;1.00;;
18383;SDS011;9318;48.644;9.456;2023-05-24T02:07:13;0.90;;;0.90;;
18383;SDS011;9318;48.644;9.456;2023-05-24T02:09:39;0.80;;;0.80;;
18383;SDS011;9318;48.644;9.456;2023-05-24T02:12:07;0.90;;;0.90;;
18383;SDS011;9318;48.644;9.456;2023-05-24T02:14:34;1.00;;;1.00;;
18383;SDS011;9318;48.644;9.456;2023-05-24T02:17:03;0.90;;;0.90;;
18383;SDS011;9318;48.644;9.456;2023-05-24T02:19:30;0.93;;;0.93;;
18383;SDS011;9318;48.644;9.456;2023-05-24T02:21:58;0.90;;;0.90;;
18383;SDS011;9318;48.644;9.456;2023-05-24T02:24:25;1.00;;;1.00;;
18383;SDS011;9318;48.644;9.456;2023-05-24T02:26:52;0.90;;;0.90;;
18383;SDS011;9318;48.644;9.456;2023-05-24T02:29:20;0.80;;;0.80;;
18383;SDS011;9318;48.644;9.456;2023-05-24T02:31:47;0.90;;;0.90;;
18383;SDS011;9318;48.644;9.456;2023-05-24T02:34:20;0.70;;;0.70;;
18383;SDS011;9318;48.644;9.456;2023-05-24T02:36:48;0.90;;;0.90;;
18383;SDS011;9318;48.644;9.456;2023-05-24T02:39:14;0.90;;;0.90;;
18383;SDS011;9318;48.644;9.456;2023-05-24T02:41:41;0.90;;;0.90;;
18383;SDS011;9318;48.644;9.456;2023-05-24T02:44:08;1.00;;;1.00;;
18383;SDS011;9318;48.644;9.456;2023-05-24T02:46:35;0.80;;;0.80;;
18383;SDS011;9318;48.644;9.456;2023-05-24T02:49:01;0.90;;;0.90;;
18383;SDS011;9318;48.644;9.456;2023-05-24T02:51:30;0.80;;;0.80;;
18383;SDS011;9318;48.644;9.456;2023-05-24T02:53:57;0.80;;;0.80;;
18383;SDS011;9318;48.644;9.456;2023-05-24T02:56:25;0.80;;;0.80;;
18383;SDS011;9318;48.644;9.456;2023-05-24T02:58:51;1.00;;;1.00;;
18383;SDS011;9318;48.644;9.456;2023-05-24T03:01:19;0.80;;;0.80;;
18383;SDS011;9318;48.644;9.456;2023-05-24T03:03:46;0.90;;;0.90;;
18383;SDS011;9318;48.644;9.456;2023-05-24T03:06:13;0.80;;;0.80;;
18383;SDS011;9318;48.644;9.456;2023-05-24T03:08:41;1.00;;;1.00;;
18383;SDS011;9318;48.644;9.456;2023-05-24T03:11:08;0.90;;;0.90;;
18383;SDS011;9318;48.644;9.456;2023-05-24T03:13:35;0.90;;;0.90;;
18383;SDS011;9318;48.644;9.456;2023-05-24T03:16:02;0.90;;;0.90;;
18383;SDS011;9318;48.644;9.456;2023-05-24T03:18:29;0.90;;;0.90;;
18383;SDS011;9318;48.644;9.456;2023-05-24T03:20:55;0.90;;;0.90;;
18383;SDS011;9318;48.644;9.456;2023-05-24T03:23:22;0.97;;;0.97;;
18383;SDS011;9318;48.644;9.456;2023-05-24T03:25:50;0.90;;;0.90;;
18383;SDS011;9318;48.644;9.456;2023-05-24T03:28:17;0.80;;;0.80;;
18383;SDS011;9318;48.644;9.456;2023-05-24T03:30:46;0.90;;;0.90;;
18383;SDS011;9318;48.644;9.456;2023-05-24T03:33:13;0.80;;;0.80;;
18383;SDS011;9318;48.644;9.456;2023-05-24T03:35:39;1.00;;;1.00;;
18383;SDS011;9318;48.644;9.456;2023-05-24T03:38:06;1.00;;;1.00;;
18383;SDS011;9318;48.644;9.456;2023-05-24T03:40:33;1.00;;;1.00;;
18383;SDS011;9318;48.644;9.456;2023-05-24T03:43:02;1.00;;;1.00;;
18383;SDS011;9318;48.644;9.456;2023-05-24T03:45:28;0.90;;;0.90;;
18383;SDS011;9318;48.644;9.456;2023-05-24T03:47:55;0.80;;;0.80;;
18383;SDS011;9318;48.644;9.456;2023-05-24T03:50:22;0.90;;;0.90;;
18383;SDS011;9318;48.644;9.456;2023-05-24T03:52:49;0.90;;;0.90;;
18383;SDS011;9318;48.644;9.456;2023-05-24T03:55:17;0.80;;;0.80;;
18383;SDS011;9318;48.644;9.456;2023-05-24T03:57:43;0.90;;;0.90;;
18383;SDS011;9318;48.644;9.456;2023-05-24T04:00:12;1.00;;;1.00;;
18383;SDS011;9318;48.644;9.456;2023-05-24T04:02:40;0.90;;;0.90;;
18383;SDS011;9318;48.644;9.456;2023-05-24T04:05:06;0.90;;;0.90;;
18383;SDS011;9318;48.644;9.456;2023-05-24T04:07:34;0.93;;;0.93;;
18383;SDS011;9318;48.644;9.456;2023-05-24T04:10:02;0.90;;;0.90;;
18383;SDS011;9318;48.644;9.456;2023-05-24T04:12:29;0.90;;;0.90;;
18383;SDS011;9318;48.644;9.456;2023-05-24T04:14:56;0.90;;;0.90;;
18383;SDS011;9318;48.644;9.456;2023-05-24T04:17:25;0.87;;;0.87;;
18383;SDS011;9318;48.644;9.456;2023-05-24T04:19:53;1.00;;;1.00;;
18383;SDS011;9318;48.644;9.456;2023-05-24T04:22:20;0.77;;;0.77;;
18383;SDS011;9318;48.644;9.456;2023-05-24T04:24:47;0.90;;;0.90;;
18383;SDS011;9318;48.644;9.456;2023-05-24T04:27:14;0.83;;;0.83;;
18383;SDS011;9318;48.644;9.456;2023-05-24T04:29:43;1.00;;;1.00;;
18383;SDS011;9318;48.644;9.456;2023-05-24T04:32:13;0.97;;;0.97;;
18383;SDS011;9318;48.644;9.456;2023-05-24T04:34:43;1.00;;;1.00;;
18383;SDS011;9318;48.644;9.456;2023-05-24T04:37:10;1.00;;;1.00;;
18383;SDS011;9318;48.644;9.456;2023-05-24T04:39:37;0.90;;;0.90;;
18383;SDS011;9318;48.644;9.456;2023-05-24T04:42:05;0.90;;;0.90;;
18383;SDS011;9318;48.644;9.456;2023-05-24T04:44:32;0.80;;;0.80;;
18383;SDS011;9318;48.644;9.456;2023-05-24T04:46:59;0.80;;;0.80;;
18383;SDS011;9318;48.644;9.456;2023-05-24T04:49:27;0.77;;;0.77;;
18383;SDS011;9318;48.644;9.456;2023-05-24T04:51:55;0.90;;;0.90;;
18383;SDS011;9318;48.644;9.456;2023-05-24T04:54:22;0.90;;;0.90;;
18383;SDS011;9318;48.644;9.456;2023-05-24T04:56:49;1.00;;;1.00;;
18383;SDS011;9318;48.644;9.456;2023-05-24T04:59:16;0.90;;;0.90;;
18383;SDS011;9318;48.644;9.456;2023-05-24T05:01:42;0.90;;;0.90;;
18383;SDS011;9318;48.644;9.456;2023-05-24T05:04:09;0.90;;;0.90;;
18383;SDS011;9318;48.644;9.456;2023-05-24T05:06:36;0.90;;;0.90;;
18383;SDS011;9318;48.644;9.456;2023-05-24T05:09:05;0.80;;;0.80;;
18383;SDS011;9318;48.644;9.456;2023-05-24T05:11:34;0.90;;;0.90;;
18383;SDS011;9318;48.644;9.456;2023-05-24T05:14:01;0.93;;;0.93;;
18383;SDS011;9318;48.644;9.456;2023-05-24T05:16:28;0.80;;;0.80;;
18383;SDS011;9318;48.644;9.456;2023-05-24T05:18:55;0.80;;;0.80;;
18383;SDS011;9318;48.644;9.456;2023-05-24T05:21:22;0.90;;;0.90;;
18383;SDS011;9318;48.644;9.456;2023-05-24T05:23:49;0.90;;;0.90;;
18383;SDS011;9318;48.644;9.456;2023-05-24T05:26:17;1.00;;;1.00;;
18383;SDS011;9318;48.644;9.456;2023-05-24T05:28:44;0.90;;;0.90;;
18383;SDS011;9318;48.644;9.456;2023-05-24T05:31:10;1.00;;;1.00;;
18383;SDS011;9318;48.644;9.456;2023-05-24T05:33:37;1.00;;;1.00;;
18383;SDS011;9318;48.644;9.456;2023-05-24T05:36:04;0.90;;;0.90;;
18383;SDS011;9318;48.644;9.456;2023-05-24T05:38:31;1.00;;;1.00;;
18383;SDS011;9318;48.644;9.456;2023-05-24T05:40:58;0.90;;;0.90;;
18383;SDS011;9318;48.644;9.456;2023-05-24T05:43:26;0.90;;;0.90;;
18383;SDS011;9318;48.644;9.456;2023-05-24T05:45:53;1.00;;;1.00;;
18383;SDS011;9318;48.644;9.456;2023-05-24T05:48:20;0.90;;;0.90;;
18383;SDS011;9318;48.644;9.456;2023-05-24T05:50:46;1.00;;;1.00;;
18383;SDS011;9318;48.644;9.456;2023-05-24T05:53:14;1.00;;;1.00;;
18383;SDS011;9318;48.644;9.456;2023-05-24T05:55:41;0.90;;;0.90;;
18383;SDS011;9318;48.644;9.456;2023-05-24T05:58:07;0.90;;;0.90;;
18383;SDS011;9318;48.644;9.456;2023-05-24T06:00:37;1.00;;;1.00;;
18383;SDS011;9318;48.644;9.456;2023-05-24T06:03:04;0.97;;;0.97;;
18383;SDS011;9318;48.644;9.456;2023-05-24T06:05:30;0.90;;;0.90;;
18383;SDS011;9318;48.644;9.456;2023-05-24T06:07:57;0.90;;;0.90;;
18383;SDS011;9318;48.644;9.456;2023-05-24T06:10:24;1.00;;;1.00;;
18383;SDS011;9318;48.644;9.456;2023-05-24T06:12:51;1.00;;;1.00;;
18383;SDS011;9318;48.644;9.456;2023-05-24T06:15:18;0.80;;;0.80;;
18383;SDS011;9318;48.644;9.456;2023-05-24T06:17:48;0.83;;;0.83;;
18383;SDS011;9318;48.644;9.456;2023-05-24T06:20:15;0.90;;;0.90;;
18383;SDS011;9318;48.644;9.456;2023-05-24T06:22:42;0.80;;;0.80;;
18383;SDS011;9318;48.644;9.456;2023-05-24T06:25:09;0.90;;;0.90;;
18383;SDS011;9318;48.644;9.456;2023-05-24T06:27:39;0.90;;;0.90;;
18383;SDS011;9318;48.644;9.456;2023-05-24T06:30:07;0.90;;;0.90;;
18383;SDS011;9318;48.644;9.456;2023-05-24T06:32:34;0.90;;;0.90;;
18383;SDS011;9318;48.644;9.456;2023-05-24T06:35:02;0.90;;;0.90;;
18383;SDS011;9318;48.644;9.456;2023-05-24T06:37:29;0.90;;;0.90;;
18383;SDS011;9318;48.644;9.456;2023-05-24T06:39:57;0.93;;;0.93;;
18383;SDS011;9318;48.644;9.456;2023-05-24T06:42:24;1.10;;;1.10;;
18383;SDS011;9318;48.644;9.456;2023-05-24T06:44:51;0.87;;;0.87;;
18383;SDS011;9318;48.644;9.456;2023-05-24T06:47:19;0.90;;;0.90;;
18383;SDS011;9318;48.644;9.456;2023-05-24T06:49:47;1.00;;;1.00;;
18383;SDS011;9318;48.644;9.456;2023-05-24T06:52:15;0.90;;;0.90;;
18383;SDS011;9318;48.644;9.456;2023-05-24T06:54:42;0.80;;;0.80;;
18383;SDS011;9318;48.644;9.456;2023-05-24T06:57:08;1.00;;;1.00;;
18383;SDS011;9318;48.644;9.456;2023-05-24T06:59:35;0.90;;;0.90;;
18383;SDS011;9318;48.644;9.456;2023-05-24T07:02:02;0.80;;;0.80;;
18383;SDS011;9318;48.644;9.456;2023-05-24T07:04:29;0.90;;;0.90;;
18383;SDS011;9318;48.644;9.456;2023-05-24T07:06:56;0.90;;;0.90;;
18383;SDS011;9318;48.644;9.456;2023-05-24T07:09:24;0.90;;;0.90;;
18383;SDS011;9318;48.644;9.456;2023-05-24T07:11:51;0.90;;;0.90;;
18383;SDS011;9318;48.644;9.456;2023-05-24T07:14:18;0.90;;;0.90;;
18383;SDS011;9318;48.644;9.456;2023-05-24T07:16:47;0.80;;;0.80;;
18383;SDS011;9318;48.644;9.456;2023-05-24T07:19:13;1.00;;;1.00;;
18383;SDS011;9318;48.644;9.456;2023-05-24T07:21:40;0.90;;;0.90;;
18383;SDS011;9318;48.644;9.456;2023-05-24T07:24:07;0.77;;;0.77;;
18383;SDS011;9318;48.644;9.456;2023-05-24T07:26:35;1.00;;;1.00;;
18383;SDS011;9318;48.644;9.456;2023-05-24T07:29:02;1.00;;;1.00;;
18383;SDS011;9318;48.644;9.456;2023-05-24T07:31:29;1.00;;;1.00;;
18383;SDS011;9318;48.644;9.456;2023-05-24T07:33:58;1.00;;;1.00;;
18383;SDS011;9318;48.644;9.456;2023-05-24T07:36:25;0.90;;;0.90;;
18383;SDS011;9318;48.644;9.456;2023-05-24T07:38:56;0.83;;;0.83;;
18383;SDS011;9318;48.644;9.456;2023-05-24T07:41:24;0.90;;;0.90;;
18383;SDS011;9318;48.644;9.456;2023-05-24T07:43:53;0.90;;;0.90;;
18383;SDS011;9318;48.644;9.456;2023-05-24T07:46:20;1.00;;;1.00;;
18383;SDS011;9318;48.644;9.456;2023-05-24T07:48:47;0.80;;;0.80;;
18383;SDS011;9318;48.644;9.456;2023-05-24T07:51:14;1.00;;;1.00;;
18383;SDS011;9318;48.644;9.456;2023-05-24T07:53:41;0.90;;;0.90;;
18383;SDS011;9318;48.644;9.456;2023-05-24T07:56:07;0.90;;;0.90;;
18383;SDS011;9318;48.644;9.456;2023-05-24T07:58:35;1.00;;;1.00;;
18383;SDS011;9318;48.644;9.456;2023-05-24T08:01:05;1.00;;;1.00;;
18383;SDS011;9318;48.644;9.456;2023-05-24T08:03:33;1.00;;;1.00;;
18383;SDS011;9318;48.644;9.456;2023-05-24T08:06:00;0.90;;;0.90;;
18383;SDS011;9318;48.644;9.456;2023-05-24T08:08:28;0.80;;;0.80;;
18383;SDS011;9318;48.644;9.456;2023-05-24T08:10:54;0.90;;;0.90;;
18383;SDS011;9318;48.644;9.456;2023-05-24T08:13:21;0.80;;;0.80;;
18383;SDS011;9318;48.644;9.456;2023-05-24T08:15:48;0.90;;;0.90;;
18383;SDS011;9318;48.644;9.456;2023-05-24T08:18:16;0.90;;;0.90;;
18383;SDS011;9318;48.644;9.456;2023-05-24T08:20:43;0.97;;;0.97;;
18383;SDS011;9318;48.644;9.456;2023-05-24T08:23:10;0.90;;;0.90;;
18383;SDS011;9318;48.644;9.456;2023-05-24T08:25:37;0.90;;;0.90;;
18383;SDS011;9318;48.644;9.456;2023-05-24T08:28:04;0.90;;;0.90;;
18383;SDS011;9318;48.644;9.456;2023-05-24T08:30:31;1.00;;;1.00;;
18383;SDS011;9318;48.644;9.456;2023-05-24T08:32:58;0.90;;;0.90;;
18383;SDS011;9318;48.644;9.456;2023-05-24T08:35:26;0.90;;;0.90;;
18383;SDS011;9318;48.644;9.456;2023-05-24T08:37:53;0.90;;;0.90;;
18383;SDS011;9318;48.644;9.456;2023-05-24T08:40:20;0.90;;;0.90;;
18383;SDS011;9318;48.644;9.456;2023-05-24T08:42:48;0.97;;;0.97;;
18383;SDS011;9318;48.644;9.456;2023-05-24T08:45:15;0.80;;;0.80;;
18383;SDS011;9318;48.644;9.456;2023-05-24T08:47:43;1.00;;;1.00;;
18383;SDS011;9318;48.644;9.456;2023-05-24T08:50:12;1.00;;;1.00;;
18383;SDS011;9318;48.644;9.456;2023-05-24T08:52:42;0.80;;;0.80;;
18383;SDS011;9318;48.644;9.456;2023-05-24T08:55:11;0.90;;;0.90;;
18383;SDS011;9318;48.644;9.456;2023-05-24T08:57:38;0.80;;;0.80;;
18383;SDS011;9318;48.644;9.456;2023-05-24T09:00:06;0.80;;;0.80;;
18383;SDS011;9318;48.644;9.456;2023-05-24T09:02:35;0.80;;;0.80;;
18383;SDS011;9318;48.644;9.456;2023-05-24T09:05:03;0.83;;;0.83;;
18383;SDS011;9318;48.644;9.456;2023-05-24T09:07:34;0.90;;;0.90;;
18383;SDS011;9318;48.644;9.456;2023-05-24T09:10:04;0.90;;;0.90;;
18383;SDS011;9318;48.644;9.456;2023-05-24T09:12:33;0.80;;;0.80;;
18383;SDS011;9318;48.644;9.456;2023-05-24T09:15:01;0.90;;;0.90;;
18383;SDS011;9318;48.644;9.456;2023-05-24T09:17:29;0.90;;;0.90;;
18383;SDS011;9318;48.644;9.456;2023-05-24T09:19:56;0.90;;;0.90;;
18383;SDS011;9318;48.644;9.456;2023-05-24T09:22:24;1.00;;;1.00;;
18383;SDS011;9318;48.644;9.456;2023-05-24T09:24:56;0.90;;;0.90;;
18383;SDS011;9318;48.644;9.456;2023-05-24T09:27:26;0.80;;;0.80;;
18383;SDS011;9318;48.644;9.456;2023-05-24T09:29:53;0.70;;;0.70;;
18383;SDS011;9318;48.644;9.456;2023-05-24T09:32:21;0.90;;;0.90;;
18383;SDS011;9318;48.644;9.456;2023-05-24T09:34:50;0.90;;;0.90;;
18383;SDS011;9318;48.644;9.456;2023-05-24T09:37:18;0.90;;;0.90;;
18383;SDS011;9318;48.644;9.456;2023-05-24T09:39:47;0.90;;;0.90;;
18383;SDS011;9318;48.644;9.456;2023-05-24T09:42:16;0.90;;;0.90;;
18383;SDS011;9318;48.644;9.456;2023-05-24T09:44:46;0.90;;;0.90;;
18383;SDS011;9318;48.644;9.456;2023-05-24T09:47:13;0.83;;;0.83;;
18383;SDS011;9318;48.644;9.456;2023-05-24T09:49:40;0.90;;;0.90;;
18383;SDS011;9318;48.644;9.456;2023-05-24T09:52:07;0.90;;;0.90;;
18383;SDS011;9318;48.644;9.456;2023-05-24T09:54:38;0.87;;;0.87;;
18383;SDS011;9318;48.644;9.456;2023-05-24T09:57:06;0.97;;;0.97;;
18383;SDS011;9318;48.644;9.456;2023-05-24T09:59:33;0.80;;;0.80;;
18383;SDS011;9318;48.644;9.456;2023-05-24T10:02:08;0.80;;;0.80;;
18383;SDS011;9318;48.644;9.456;2023-05-24T10:04:36;0.90;;;0.90;;
18383;SDS011;9318;48.644;9.456;2023-05-24T10:07:03;0.80;;;0.80;;
18383;SDS011;9318;48.644;9.456;2023-05-24T10:09:31;0.80;;;0.80;;
18383;SDS011;9318;48.644;9.456;2023-05-24T10:12:00;0.90;;;0.90;;
18383;SDS011;9318;48.644;9.456;2023-05-24T10:14:29;0.80;;;0.80;;
18383;SDS011;9318;48.644;9.456;2023-05-24T10:16:58;0.90;;;0.90;;
18383;SDS011;9318;48.644;9.456;2023-05-24T10:19:26;0.90;;;0.90;;
18383;SDS011;9318;48.644;9.456;2023-05-24T10:21:53;0.80;;;0.80;;
18383;SDS011;9318;48.644;9.456;2023-05-24T10:24:22;0.70;;;0.70;;
18383;SDS011;9318;48.644;9.456;2023-05-24T10:26:51;0.80;;;0.80;;
18383;SDS011;9318;48.644;9.456;2023-05-24T10:29:22;0.80;;;0.80;;
18383;SDS011;9318;48.644;9.456;2023-05-24T10:31:58;0.90;;;0.90;;
18383;SDS011;9318;48.644;9.456;2023-05-24T10:34:26;0.90;;;0.90;;
18383;SDS011;9318;48.644;9.456;2023-05-24T10:36:54;0.80;;;0.80;;
18383;SDS011;9318;48.644;9.456;2023-05-24T10:39:23;0.97;;;0.97;;
18383;SDS011;9318;48.644;9.456;2023-05-24T10:41:50;0.80;;;0.80;;
18383;SDS011;9318;48.644;9.456;2023-05-24T10:44:20;0.90;;;0.90;;
18383;SDS011;9318;48.644;9.456;2023-05-24T10:49:47;0.90;;;0.90;;
18383;SDS011;9318;48.644;9.456;2023-05-24T10:52:17;0.90;;;0.90;;
18383;SDS011;9318;48.644;9.456;2023-05-24T10:55:00;0.90;;;0.90;;
18383;SDS011;9318;48.644;9.456;2023-05-24T10:57:28;0.80;;;0.80;;
18383;SDS011;9318;48.644;9.456;2023-05-24T10:59:56;0.90;;;0.90;;
18383;SDS011;9318;48.644;9.456;2023-05-24T11:02:26;0.90;;;0.90;;
18383;SDS011;9318;48.644;9.456;2023-05-24T11:04:55;0.90;;;0.90;;
18383;SDS011;9318;48.644;9.456;2023-05-24T11:07:23;0.80;;;0.80;;
18383;SDS011;9318;48.644;9.456;2023-05-24T11:09:50;0.90;;;0.90;;
18383;SDS011;9318;48.644;9.456;2023-05-24T11:12:23;0.80;;;0.80;;
18383;SDS011;9318;48.644;9.456;2023-05-24T11:14:56;0.90;;;0.90;;
18383;SDS011;9318;48.644;9.456;2023-05-24T11:17:24;1.00;;;1.00;;
18383;SDS011;9318;48.644;9.456;2023-05-24T11:19:52;0.90;;;0.90;;
18383;SDS011;9318;48.644;9.456;2023-05-24T11:22:22;0.90;;;0.90;;
18383;SDS011;9318;48.644;9.456;2023-05-24T11:24:50;0.80;;;0.80;;
18383;SDS011;9318;48.644;9.456;2023-05-24T11:27:18;0.80;;;0.80;;
18383;SDS011;9318;48.644;9.456;2023-05-24T11:29:45;0.80;;;0.80;;
18383;SDS011;9318;48.644;9.456;2023-05-24T11:32:13;0.73;;;0.73;;
18383;SDS011;9318;48.644;9.456;2023-05-24T11:34:41;0.80;;;0.80;;
18383;SDS011;9318;48.644;9.456;2023-05-24T11:37:09;0.70;;;0.70;;
18383;SDS011;9318;48.644;9.456;2023-05-24T11:39:38;0.80;;;0.80;;
18383;SDS011;9318;48.644;9.456;2023-05-24T11:42:05;0.77;;;0.77;;
18383;SDS011;9318;48.644;9.456;2023-05-24T11:44:33;0.80;;;0.80;;
18383;SDS011;9318;48.644;9.456;2023-05-24T11:47:03;0.90;;;0.90;;
18383;SDS011;9318;48.644;9.456;2023-05-24T11:49:31;0.80;;;0.80;;
18383;SDS011;9318;48.644;9.456;2023-05-24T11:51:58;0.70;;;0.70;;
18383;SDS011;9318;48.644;9.456;2023-05-24T11:54:26;0.70;;;0.70;;
18383;SDS011;9318;48.644;9.456;2023-05-24T11:56:54;0.70;;;0.70;;
18383;SDS011;9318;48.644;9.456;2023-05-24T11:59:21;0.80;;;0.80;;
18383;SDS011;9318;48.644;9.456;2023-05-24T12:01:49;0.80;;;0.80;;
18383;SDS011;9318;48.644;9.456;2023-05-24T12:04:22;0.80;;;0.80;;
18383;SDS011;9318;48.644;9.456;2023-05-24T12:06:48;0.80;;;0.80;;
18383;SDS011;9318;48.644;9.456;2023-05-24T12:09:15;0.70;;;0.70;;
18383;SDS011;9318;48.644;9.456;2023-05-24T12:11:43;0.80;;;0.80;;
18383;SDS011;9318;48.644;9.456;2023-05-24T12:14:13;0.63;;;0.63;;
18383;SDS011;9318;48.644;9.456;2023-05-24T12:16:42;0.70;;;0.70;;
18383;SDS011;9318;48.644;9.456;2023-05-24T12:19:11;0.70;;;0.70;;
18383;SDS011;9318;48.644;9.456;2023-05-24T12:21:41;0.75;;;0.75;;
18383;SDS011;9318;48.644;9.456;2023-05-24T12:24:09;0.70;;;0.70;;
18383;SDS011;9318;48.644;9.456;2023-05-24T12:26:39;0.70;;;0.70;;
18383;SDS011;9318;48.644;9.456;2023-05-24T12:29:08;0.55;;;0.55;;
18383;SDS011;9318;48.644;9.456;2023-05-24T12:31:37;0.60;;;0.60;;
18383;SDS011;9318;48.644;9.456;2023-05-24T12:34:05;0.70;;;0.70;;
18383;SDS011;9318;48.644;9.456;2023-05-24T12:36:32;0.70;;;0.70;;
18383;SDS011;9318;48.644;9.456;2023-05-24T12:39:03;0.70;;;0.70;;
18383;SDS011;9318;48.644;9.456;2023-05-24T12:41:42;0.73;;;0.73;;
18383;SDS011;9318;48.644;9.456;2023-05-24T12:44:08;0.63;;;0.63;;
18383;SDS011;9318;48.644;9.456;2023-05-24T12:46:35;0.90;;;0.90;;
18383;SDS011;9318;48.644;9.456;2023-05-24T12:49:03;0.70;;;0.70;;
18383;SDS011;9318;48.644;9.456;2023-05-24T12:51:30;0.77;;;0.77;;
18383;SDS011;9318;48.644;9.456;2023-05-24T12:53:57;0.70;;;0.70;;
18383;SDS011;9318;48.644;9.456;2023-05-24T12:56:25;0.70;;;0.70;;
18383;SDS011;9318;48.644;9.456;2023-05-24T12:58:52;0.70;;;0.70;;
18383;SDS011;9318;48.644;9.456;2023-05-24T13:01:19;0.70;;;0.70;;
18383;SDS011;9318;48.644;9.456;2023-05-24T13:03:46;0.60;;;0.60;;
18383;SDS011;9318;48.644;9.456;2023-05-24T13:06:14;0.60;;;0.60;;
18383;SDS011;9318;48.644;9.456;2023-05-24T13:08:41;0.70;;;0.70;;
18383;SDS011;9318;48.644;9.456;2023-05-24T13:11:08;0.70;;;0.70;;
18383;SDS011;9318;48.644;9.456;2023-05-24T13:13:35;0.70;;;0.70;;
18383;SDS011;9318;48.644;9.456;2023-05-24T13:16:02;0.55;;;0.55;;
18383;SDS011;9318;48.644;9.456;2023-05-24T13:18:31;0.70;;;0.70;;
18383;SDS011;9318;48.644;9.456;2023-05-24T13:20:58;0.60;;;0.60;;
18383;SDS011;9318;48.644;9.456;2023-05-24T13:23:26;0.70;;;0.70;;
18383;SDS011;9318;48.644;9.456;2023-05-24T13:25:53;0.60;;;0.60;;
18383;SDS011;9318;48.644;9.456;2023-05-24T13:28:22;0.60;;;0.60;;
18383;SDS011;9318;48.644;9.456;2023-05-24T13:30:49;0.70;;;0.70;;
18383;SDS011;9318;48.644;9.456;2023-05-24T13:33:15;0.70;;;0.70;;
18383;SDS011;9318;48.644;9.456;2023-05-24T13:35:42;0.70;;;0.70;;
18383;SDS011;9318;48.644;9.456;2023-05-24T13:38:09;0.77;;;0.77;;
18383;SDS011;9318;48.644;9.456;2023-05-24T13:40:37;0.70;;;0.70;;
18383;SDS011;9318;48.644;9.456;2023-05-24T13:43:04;0.60;;;0.60;;
18383;SDS011;9318;48.644;9.456;2023-05-24T13:45:31;0.70;;;0.70;;
18383;SDS011;9318;48.644;9.456;2023-05-24T13:47:58;0.70;;;0.70;;
18383;SDS011;9318;48.644;9.456;2023-05-24T13:50:27;0.70;;;0.70;;
18383;SDS011;9318;48.644;9.456;2023-05-24T13:52:56;0.68;;;0.68;;
18383;SDS011;9318;48.644;9.456;2023-05-24T13:55:23;0.90;;;0.90;;
18383;SDS011;9318;48.644;9.456;2023-05-24T13:57:51;0.60;;;0.60;;
18383;SDS011;9318;48.644;9.456;2023-05-24T14:00:19;0.70;;;0.70;;
18383;SDS011;9318;48.644;9.456;2023-05-24T14:02:47;0.50;;;0.50;;
18383;SDS011;9318;48.644;9.456;2023-05-24T14:05:14;0.80;;;0.80;;
18383;SDS011;9318;48.644;9.456;2023-05-24T14:07:41;0.70;;;0.70;;
18383;SDS011;9318;48.644;9.456;2023-05-24T14:10:08;0.60;;;0.60;;
18383;SDS011;9318;48.644;9.456;2023-05-24T14:12:36;0.80;;;0.80;;
18383;SDS011;9318;48.644;9.456;2023-05-24T14:15:05;0.70;;;0.70;;
18383;SDS011;9318;48.644;9.456;2023-05-24T14:17:32;0.70;;;0.70;;
18383;SDS011;9318;48.644;9.456;2023-05-24T14:19:59;0.60;;;0.60;;
18383;SDS011;9318;48.644;9.456;2023-05-24T14:22:26;0.55;;;0.55;;
18383;SDS011;9318;48.644;9.456;2023-05-24T14:24:53;0.70;;;0.70;;
18383;SDS011;9318;48.644;9.456;2023-05-24T14:27:20;0.70;;;0.70;;
18383;SDS011;9318;48.644;9.456;2023-05-24T14:29:47;0.70;;;0.70;;
18383;SDS011;9318;48.644;9.456;2023-05-24T14:32:15;0.70;;;0.70;;
18383;SDS011;9318;48.644;9.456;2023-05-24T14:34:41;0.50;;;0.50;;
18383;SDS011;9318;48.644;9.456;2023-05-24T14:37:08;0.70;;;0.70;;
18383;SDS011;9318;48.644;9.456;2023-05-24T14:39:35;0.60;;;0.60;;
18383;SDS011;9318;48.644;9.456;2023-05-24T14:42:02;0.60;;;0.60;;
18383;SDS011;9318;48.644;9.456;2023-05-24T14:44:28;0.80;;;0.80;;
18383;SDS011;9318;48.644;9.456;2023-05-24T14:46:55;0.70;;;0.70;;
18383;SDS011;9318;48.644;9.456;2023-05-24T14:49:23;0.65;;;0.65;;
18383;SDS011;9318;48.644;9.456;2023-05-24T14:51:50;0.70;;;0.70;;
18383;SDS011;9318;48.644;9.456;2023-05-24T14:54:17;0.70;;;0.70;;
18383;SDS011;9318;48.644;9.456;2023-05-24T14:56:43;0.77;;;0.77;;
18383;SDS011;9318;48.644;9.456;2023-05-24T14:59:10;0.65;;;0.65;;
18383;SDS011;9318;48.644;9.456;2023-05-24T15:01:37;0.60;;;0.60;;
18383;SDS011;9318;48.644;9.456;2023-05-24T15:04:04;0.70;;;0.70;;
18383;SDS011;9318;48.644;9.456;2023-05-24T15:06:32;0.60;;;0.60;;
18383;SDS011;9318;48.644;9.456;2023-05-24T15:09:00;0.80;;;0.80;;